createdAt,value
2018-03-28T00:00:36.570Z,998.81
2018-03-28T00:01:36.596Z,998.81
2018-03-28T00:02:36.623Z,998.85
2018-03-28T00:03:36.652Z,998.83
2018-03-28T00:04:36.676Z,998.84
2018-03-28T00:05:36.703Z,998.85
2018-03-28T00:06:36.730Z,998.84
2018-03-28T00:07:36.757Z,998.82
2018-03-28T00:08:36.781Z,998.83
2018-03-28T00:09:36.814Z,998.84
2018-03-28T00:10:36.836Z,998.82
2018-03-28T00:11:36.862Z,998.82
2018-03-28T00:12:36.887Z,998.85
2018-03-28T00:13:36.914Z,998.85
2018-03-28T00:14:36.942Z,998.82
2018-03-28T00:15:36.989Z,998.84
2018-03-28T00:16:36.997Z,998.89
2018-03-28T00:17:37.021Z,998.87
2018-03-28T00:18:37.047Z,998.83
2018-03-28T00:19:37.074Z,998.85
2018-03-28T00:20:37.100Z,998.85
2018-03-28T00:21:37.126Z,998.82
2018-03-28T00:22:37.153Z,998.82
2018-03-28T00:23:37.180Z,998.79
2018-03-28T00:24:37.205Z,998.77
2018-03-28T00:25:37.233Z,998.80
2018-03-28T00:26:37.260Z,998.77
2018-03-28T00:27:37.286Z,998.76
2018-03-28T00:28:37.346Z,998.77
2018-03-28T00:29:37.355Z,998.72
2018-03-28T00:30:37.385Z,998.73
2018-03-28T00:31:37.392Z,998.72
2018-03-28T00:32:37.417Z,998.73
2018-03-28T00:33:37.444Z,998.73
2018-03-28T00:34:37.471Z,998.72
2018-03-28T00:35:37.498Z,998.75
2018-03-28T00:36:37.524Z,998.67
2018-03-28T00:37:37.568Z,998.68
2018-03-28T00:38:37.577Z,998.69
2018-03-28T00:39:37.647Z,998.70
2018-03-28T00:40:37.666Z,998.74
2018-03-28T00:41:37.681Z,998.70
2018-03-28T00:42:37.684Z,998.71
2018-03-28T00:43:37.749Z,998.68
2018-03-28T00:44:37.772Z,998.67
2018-03-28T00:45:37.762Z,998.65
2018-03-28T00:46:37.789Z,998.65
2018-03-28T00:47:37.815Z,998.61
2018-03-28T00:48:37.840Z,998.58
2018-03-28T00:49:37.868Z,998.60
2018-03-28T00:50:37.895Z,998.60
2018-03-28T00:51:37.928Z,998.57
2018-03-28T00:52:37.949Z,998.60
2018-03-28T00:53:37.975Z,998.62
2018-03-28T00:54:38.001Z,998.62
2018-03-28T00:55:38.028Z,998.62
2018-03-28T00:56:38.053Z,998.56
2018-03-28T00:57:38.080Z,998.61
2018-03-28T00:58:38.107Z,998.53
2018-03-28T00:59:38.134Z,998.52
2018-03-28T01:00:38.160Z,998.53
2018-03-28T01:01:38.186Z,998.52
2018-03-28T01:02:38.212Z,998.56
2018-03-28T01:03:38.240Z,998.54
2018-03-28T01:04:38.265Z,998.56
2018-03-28T01:05:38.292Z,998.53
2018-03-28T01:06:38.319Z,998.47
2018-03-28T01:07:38.345Z,998.48
2018-03-28T01:08:38.370Z,998.49
2018-03-28T01:09:38.402Z,998.49
2018-03-28T01:10:38.455Z,998.47
2018-03-28T01:11:38.451Z,998.47
2018-03-28T01:12:38.484Z,998.47
2018-03-28T01:13:38.508Z,998.46
2018-03-28T01:14:38.530Z,998.44
2018-03-28T01:15:38.556Z,998.45
2018-03-28T01:16:38.619Z,998.44
2018-03-28T01:17:38.621Z,998.44
2018-03-28T01:18:38.636Z,998.43
2018-03-28T01:19:38.663Z,998.41
2018-03-28T01:20:38.691Z,998.40
2018-03-28T01:21:38.719Z,998.41
2018-03-28T01:22:38.743Z,998.38
2018-03-28T01:23:38.769Z,998.43
2018-03-28T01:24:38.795Z,998.38
2018-03-28T01:25:38.838Z,998.41
2018-03-28T01:26:38.849Z,998.42
2018-03-28T01:27:38.888Z,998.41
2018-03-28T01:28:38.900Z,998.41
2018-03-28T01:29:38.927Z,998.40
2018-03-28T01:30:38.954Z,998.43
2018-03-28T01:31:38.981Z,998.39
2018-03-28T01:32:39.006Z,998.41
2018-03-28T01:33:39.033Z,998.37
2018-03-28T01:34:39.060Z,998.34
2018-03-28T01:35:39.086Z,998.39
2018-03-28T01:36:39.113Z,998.38
2018-03-28T01:37:39.138Z,998.39
2018-03-28T01:38:39.166Z,998.40
2018-03-28T01:39:39.192Z,998.38
2018-03-28T01:40:39.233Z,998.40
2018-03-28T01:41:39.259Z,998.38
2018-03-28T01:42:39.272Z,998.37
2018-03-28T01:43:39.299Z,998.35
2018-03-28T01:44:39.324Z,998.38
2018-03-28T01:45:39.351Z,998.34
2018-03-28T01:46:39.380Z,998.34
2018-03-28T01:47:39.405Z,998.39
2018-03-28T01:48:39.430Z,998.41
2018-03-28T01:49:39.460Z,998.37
2018-03-28T01:50:39.484Z,998.35
2018-03-28T01:51:39.510Z,998.34
2018-03-28T01:52:39.536Z,998.35
2018-03-28T01:53:39.564Z,998.32
2018-03-28T01:54:39.589Z,998.34
2018-03-28T01:55:39.616Z,998.33
2018-03-28T01:56:39.642Z,998.35
2018-03-28T01:57:39.669Z,998.35
2018-03-28T01:58:39.697Z,998.32
2018-03-28T01:59:39.723Z,998.31
2018-03-28T02:00:39.784Z,998.30
2018-03-28T02:01:39.775Z,998.32
2018-03-28T02:02:39.802Z,998.27
2018-03-28T02:03:39.829Z,998.28
2018-03-28T02:04:39.867Z,998.27
2018-03-28T02:05:39.881Z,998.24
2018-03-28T02:06:39.907Z,998.24
2018-03-28T02:07:39.934Z,998.28
2018-03-28T02:08:39.960Z,998.26
2018-03-28T02:09:39.986Z,998.29
2018-03-28T02:10:40.014Z,998.26
2018-03-28T02:11:40.041Z,998.32
2018-03-28T02:12:40.066Z,998.31
2018-03-28T02:13:40.094Z,998.26
2018-03-28T02:14:40.119Z,998.30
2018-03-28T02:15:40.146Z,998.32
2018-03-28T02:16:40.173Z,998.33
2018-03-28T02:17:40.262Z,998.35
2018-03-28T02:18:40.230Z,998.32
2018-03-28T02:19:40.252Z,998.32
2018-03-28T02:20:40.278Z,998.32
2018-03-28T02:21:40.305Z,998.33
2018-03-28T02:22:40.334Z,998.33
2018-03-28T02:23:40.359Z,998.29
2018-03-28T02:24:40.384Z,998.27
2018-03-28T02:25:40.412Z,998.28
2018-03-28T02:26:40.439Z,998.25
2018-03-28T02:27:40.465Z,998.23
2018-03-28T02:28:40.494Z,998.26
2018-03-28T02:29:40.517Z,998.25
2018-03-28T02:30:40.545Z,998.27
2018-03-28T02:31:40.571Z,998.29
2018-03-28T02:32:40.596Z,998.28
2018-03-28T02:33:40.623Z,998.33
2018-03-28T02:34:40.651Z,998.31
2018-03-28T02:35:40.707Z,998.32
2018-03-28T02:36:40.704Z,998.36
2018-03-28T02:37:40.762Z,998.35
2018-03-28T02:38:40.756Z,998.35
2018-03-28T02:39:40.783Z,998.38
2018-03-28T02:40:40.808Z,998.37
2018-03-28T02:41:40.836Z,998.37
2018-03-28T02:42:40.863Z,998.40
2018-03-28T02:43:40.890Z,998.41
2018-03-28T02:44:40.916Z,998.43
2018-03-28T02:45:40.943Z,998.44
2018-03-28T02:46:40.969Z,998.40
2018-03-28T02:47:40.995Z,998.43
2018-03-28T02:48:41.021Z,998.39
2018-03-28T02:49:41.047Z,998.38
2018-03-28T02:50:41.076Z,998.35
2018-03-28T02:51:41.102Z,998.34
2018-03-28T02:52:41.170Z,998.32
2018-03-28T02:53:41.203Z,998.28
2018-03-28T02:54:41.208Z,998.29
2018-03-28T02:55:41.215Z,998.28
2018-03-28T02:56:41.233Z,998.28
2018-03-28T02:57:41.260Z,998.24
2018-03-28T02:58:41.287Z,998.25
2018-03-28T02:59:41.319Z,998.27
2018-03-28T03:00:41.340Z,998.26
2018-03-28T03:01:41.367Z,998.28
2018-03-28T03:02:41.395Z,998.30
2018-03-28T03:03:41.420Z,998.30
2018-03-28T03:04:41.452Z,998.32
2018-03-28T03:05:41.473Z,998.28
2018-03-28T03:06:41.500Z,998.27
2018-03-28T03:07:41.526Z,998.30
2018-03-28T03:08:41.551Z,998.32
2018-03-28T03:09:41.578Z,998.32
2018-03-28T03:10:41.605Z,998.34
2018-03-28T03:11:41.632Z,998.34
2018-03-28T03:12:41.683Z,998.35
2018-03-28T03:13:41.757Z,998.38
2018-03-28T03:14:41.711Z,998.38
2018-03-28T03:15:41.741Z,998.44
2018-03-28T03:16:41.769Z,998.40
2018-03-28T03:17:41.791Z,998.48
2018-03-28T03:18:41.817Z,998.43
2018-03-28T03:19:41.846Z,998.42
2018-03-28T03:20:41.870Z,998.41
2018-03-28T03:21:41.929Z,998.43
2018-03-28T03:22:41.924Z,998.40
2018-03-28T03:23:41.952Z,998.40
2018-03-28T03:24:41.977Z,998.39
2018-03-28T03:25:42.004Z,998.41
2018-03-28T03:26:42.031Z,998.37
2018-03-28T03:27:42.057Z,998.44
2018-03-28T03:28:42.084Z,998.46
2018-03-28T03:29:42.144Z,998.44
2018-03-28T03:30:42.138Z,998.41
2018-03-28T03:31:42.165Z,998.48
2018-03-28T03:32:42.189Z,998.47
2018-03-28T03:33:42.216Z,998.51
2018-03-28T03:34:42.243Z,998.46
2018-03-28T03:35:42.271Z,998.42
2018-03-28T03:36:42.296Z,998.45
2018-03-28T03:37:42.323Z,998.45
2018-03-28T03:38:42.349Z,998.46
2018-03-28T03:39:42.412Z,998.45
2018-03-28T03:40:42.402Z,998.42
2018-03-28T03:41:42.428Z,998.48
2018-03-28T03:42:42.455Z,998.47
2018-03-28T03:43:42.483Z,998.46
2018-03-28T03:44:42.508Z,998.48
2018-03-28T03:45:42.535Z,998.53
2018-03-28T03:46:42.563Z,998.51
2018-03-28T03:47:42.589Z,998.53
2018-03-28T03:48:42.614Z,998.51
2018-03-28T03:49:42.642Z,998.52
2018-03-28T03:50:42.668Z,998.52
2018-03-28T03:51:42.696Z,998.52
2018-03-28T03:52:42.721Z,998.53
2018-03-28T03:53:42.751Z,998.48
2018-03-28T03:54:42.776Z,998.54
2018-03-28T03:55:42.802Z,998.52
2018-03-28T03:56:42.828Z,998.50
2018-03-28T03:57:42.854Z,998.52
2018-03-28T03:58:42.903Z,998.50
2018-03-28T03:59:42.909Z,998.55
2018-03-28T04:00:42.934Z,998.50
2018-03-28T04:01:42.963Z,998.49
2018-03-28T04:02:42.988Z,998.52
2018-03-28T04:03:43.014Z,998.50
2018-03-28T04:04:43.041Z,998.48
2018-03-28T04:05:43.068Z,998.49
2018-03-28T04:06:43.093Z,998.48
2018-03-28T04:07:43.121Z,998.52
2018-03-28T04:08:43.146Z,998.49
2018-03-28T04:09:43.176Z,998.45
2018-03-28T04:10:43.201Z,998.48
2018-03-28T04:11:43.227Z,998.49
2018-03-28T04:12:43.253Z,998.45
2018-03-28T04:13:43.309Z,998.51
2018-03-28T04:14:43.312Z,998.50
2018-03-28T04:15:43.380Z,998.44
2018-03-28T04:16:43.361Z,998.43
2018-03-28T04:17:43.387Z,998.45
2018-03-28T04:18:43.413Z,998.39
2018-03-28T04:19:43.440Z,998.44
2018-03-28T04:20:43.466Z,998.43
2018-03-28T04:21:43.496Z,998.39
2018-03-28T04:22:43.520Z,998.38
2018-03-28T04:23:43.565Z,998.40
2018-03-28T04:24:43.597Z,998.42
2018-03-28T04:25:43.599Z,998.38
2018-03-28T04:26:43.626Z,998.42
2018-03-28T04:27:43.653Z,998.42
2018-03-28T04:28:43.679Z,998.37
2018-03-28T04:29:43.727Z,998.33
2018-03-28T04:30:43.732Z,998.40
2018-03-28T04:31:43.759Z,998.36
2018-03-28T04:32:43.786Z,998.37
2018-03-28T04:33:43.831Z,998.39
2018-03-28T04:34:43.840Z,998.37
2018-03-28T04:35:43.866Z,998.37
2018-03-28T04:36:43.892Z,998.35
2018-03-28T04:37:43.919Z,998.32
2018-03-28T04:38:43.950Z,998.31
2018-03-28T04:39:43.972Z,998.30
2018-03-28T04:40:44.012Z,998.27
2018-03-28T04:41:44.026Z,998.30
2018-03-28T04:42:44.057Z,998.27
2018-03-28T04:43:44.082Z,998.25
2018-03-28T04:44:44.105Z,998.23
2018-03-28T04:45:44.132Z,998.33
2018-03-28T04:46:44.194Z,998.21
2018-03-28T04:47:44.186Z,998.24
2018-03-28T04:48:44.212Z,998.22
2018-03-28T04:49:44.239Z,998.22
2018-03-28T04:50:44.266Z,998.20
2018-03-28T04:51:44.297Z,998.13
2018-03-28T04:52:44.320Z,998.19
2018-03-28T04:53:44.345Z,998.23
2018-03-28T04:54:44.372Z,998.16
2018-03-28T04:55:44.448Z,998.15
2018-03-28T04:56:44.435Z,998.15
2018-03-28T04:57:44.453Z,998.18
2018-03-28T04:58:44.478Z,998.14
2018-03-28T04:59:44.551Z,998.14
2018-03-28T05:00:44.532Z,998.13
2018-03-28T05:01:44.586Z,998.13
2018-03-28T05:02:44.588Z,998.13
2018-03-28T05:03:44.616Z,998.14
2018-03-28T05:04:44.638Z,998.14
2018-03-28T05:05:44.666Z,998.14
2018-03-28T05:06:44.696Z,998.16
2018-03-28T05:07:44.720Z,998.17
2018-03-28T05:08:44.752Z,998.18
2018-03-28T05:09:44.773Z,998.19
2018-03-28T05:10:44.804Z,998.19
2018-03-28T05:11:44.834Z,998.25
2018-03-28T05:12:44.894Z,998.28
2018-03-28T05:13:44.880Z,998.28
2018-03-28T05:14:44.906Z,998.27
2018-03-28T05:15:44.993Z,998.25
2018-03-28T05:16:44.959Z,998.23
2018-03-28T05:17:44.987Z,998.23
2018-03-28T05:18:45.014Z,998.28
2018-03-28T05:19:46.004Z,998.28
2018-03-28T05:20:45.067Z,998.27
2018-03-28T05:21:45.095Z,998.28
2018-03-28T05:22:45.151Z,998.28
2018-03-28T05:23:45.150Z,998.30
2018-03-28T05:24:45.178Z,998.28
2018-03-28T05:25:45.202Z,998.32
2018-03-28T05:26:45.229Z,998.24
2018-03-28T05:27:45.255Z,998.28
2018-03-28T05:28:45.318Z,998.30
2018-03-28T05:29:45.309Z,998.29
2018-03-28T05:30:45.336Z,998.26
2018-03-28T05:31:45.363Z,998.24
2018-03-28T05:32:45.388Z,998.26
2018-03-28T05:33:45.417Z,998.28
2018-03-28T05:34:45.443Z,998.24
2018-03-28T05:35:45.470Z,998.24
2018-03-28T05:36:45.496Z,998.26
2018-03-28T05:37:45.523Z,998.29
2018-03-28T05:38:45.549Z,998.35
2018-03-28T05:39:45.577Z,998.30
2018-03-28T05:40:45.602Z,998.30
2018-03-28T05:41:45.642Z,998.31
2018-03-28T05:42:45.670Z,998.31
2018-03-28T05:43:45.683Z,998.27
2018-03-28T05:44:45.748Z,998.24
2018-03-28T05:45:45.744Z,998.33
2018-03-28T05:46:45.765Z,998.26
2018-03-28T05:47:45.796Z,998.32
2018-03-28T05:48:45.819Z,998.34
2018-03-28T05:49:45.859Z,998.27
2018-03-28T05:50:45.873Z,998.29
2018-03-28T05:51:45.898Z,998.24
2018-03-28T05:52:45.924Z,998.18
2018-03-28T05:53:45.951Z,998.28
2018-03-28T05:54:45.978Z,998.27
2018-03-28T05:55:46.008Z,998.23
2018-03-28T05:56:46.032Z,998.30
2018-03-28T05:57:46.061Z,998.24
2018-03-28T05:58:46.086Z,998.20
2018-03-28T05:59:46.113Z,998.21
2018-03-28T06:00:46.145Z,998.26
2018-03-28T06:01:46.167Z,998.23
2018-03-28T06:02:46.193Z,998.25
2018-03-28T06:03:46.222Z,998.23
2018-03-28T06:04:46.249Z,998.22
2018-03-28T06:05:46.276Z,998.23
2018-03-28T06:06:46.301Z,998.24
2018-03-28T06:07:46.330Z,998.25
2018-03-28T06:08:46.354Z,998.25
2018-03-28T06:09:46.382Z,998.28
2018-03-28T06:10:46.409Z,998.31
2018-03-28T06:11:46.436Z,998.37
2018-03-28T06:12:46.463Z,998.40
2018-03-28T06:13:47.031Z,998.38
2018-03-28T06:14:46.517Z,998.36
2018-03-28T06:15:46.544Z,998.38
2018-03-28T06:16:46.571Z,998.39
2018-03-28T06:17:46.600Z,998.36
2018-03-28T06:18:46.629Z,998.39
2018-03-28T06:19:46.652Z,998.37
2018-03-28T06:20:46.681Z,998.36
2018-03-28T06:21:46.706Z,998.29
2018-03-28T06:22:46.732Z,998.28
2018-03-28T06:23:46.765Z,998.31
2018-03-28T06:24:46.786Z,998.29
2018-03-28T06:25:46.816Z,998.28
2018-03-28T06:26:46.844Z,998.31
2018-03-28T06:27:46.877Z,998.26
2018-03-28T06:28:46.894Z,998.29
2018-03-28T06:29:46.971Z,998.32
2018-03-28T06:30:46.950Z,998.30
2018-03-28T06:31:46.977Z,998.31
2018-03-28T06:32:47.002Z,998.30
2018-03-28T06:33:47.031Z,998.35
2018-03-28T06:34:47.058Z,998.32
2018-03-28T06:35:47.137Z,998.31
2018-03-28T06:36:47.110Z,998.32
2018-03-28T06:37:47.140Z,998.32
2018-03-28T06:38:48.054Z,998.34
2018-03-28T06:39:47.197Z,998.37
2018-03-28T06:40:47.230Z,998.33
2018-03-28T06:41:47.246Z,998.27
2018-03-28T06:42:47.273Z,998.27
2018-03-28T06:43:47.301Z,998.26
2018-03-28T06:44:47.327Z,998.27
2018-03-28T06:45:47.389Z,998.26
2018-03-28T06:46:47.399Z,998.30
2018-03-28T06:47:47.409Z,998.36
2018-03-28T06:48:47.438Z,998.34
2018-03-28T06:49:47.464Z,998.30
2018-03-28T06:50:47.489Z,998.24
2018-03-28T06:51:47.520Z,998.29
2018-03-28T06:52:47.544Z,998.27
2018-03-28T06:53:47.573Z,998.37
2018-03-28T06:54:47.599Z,998.28
2018-03-28T06:55:47.624Z,998.31
2018-03-28T06:56:47.651Z,998.21
2018-03-28T06:57:47.682Z,998.24
2018-03-28T06:58:47.709Z,998.24
2018-03-28T06:59:47.751Z,998.26
2018-03-28T07:00:47.760Z,998.26
2018-03-28T07:01:47.791Z,998.23
2018-03-28T07:02:47.814Z,998.22
2018-03-28T07:03:47.886Z,998.19
2018-03-28T07:04:47.868Z,998.23
2018-03-28T07:05:47.898Z,998.23
2018-03-28T07:06:47.923Z,998.22
2018-03-28T07:07:47.978Z,998.25
2018-03-28T07:08:47.976Z,998.29
2018-03-28T07:09:48.004Z,998.23
2018-03-28T07:10:48.059Z,998.26
2018-03-28T07:11:48.059Z,998.28
2018-03-28T07:12:48.085Z,998.28
2018-03-28T07:13:48.113Z,998.28
2018-03-28T07:14:48.141Z,998.25
2018-03-28T07:15:48.167Z,998.24
2018-03-28T07:16:48.194Z,998.24
2018-03-28T07:17:48.260Z,998.25
2018-03-28T07:18:48.277Z,998.26
2018-03-28T07:19:48.277Z,998.27
2018-03-28T07:20:48.326Z,998.32
2018-03-28T07:21:48.330Z,998.35
2018-03-28T07:22:48.357Z,998.32
2018-03-28T07:23:48.388Z,998.30
2018-03-28T07:24:48.413Z,998.31
2018-03-28T07:25:48.439Z,998.28
2018-03-28T07:26:48.467Z,998.26
2018-03-28T07:27:48.537Z,998.30
2018-03-28T07:28:48.520Z,998.24
2018-03-28T07:29:48.570Z,998.26
2018-03-28T07:30:48.575Z,998.25
2018-03-28T07:31:48.602Z,998.21
2018-03-28T07:32:48.676Z,998.19
2018-03-28T07:33:48.680Z,998.24
2018-03-28T07:34:48.684Z,998.28
2018-03-28T07:35:48.723Z,998.27
2018-03-28T07:36:48.738Z,998.24
2018-03-28T07:37:48.766Z,998.33
2018-03-28T07:38:48.793Z,998.27
2018-03-28T07:39:48.821Z,998.27
2018-03-28T07:40:48.849Z,998.24
2018-03-28T07:41:48.874Z,998.25
2018-03-28T07:42:48.901Z,998.27
2018-03-28T07:43:48.930Z,998.29
2018-03-28T07:44:48.993Z,998.26
2018-03-28T07:45:48.983Z,998.28
2018-03-28T07:46:49.014Z,998.30
2018-03-28T07:47:49.039Z,998.30
2018-03-28T07:48:49.067Z,998.28
2018-03-28T07:49:49.095Z,998.33
2018-03-28T07:50:49.122Z,998.33
2018-03-28T07:51:49.151Z,998.35
2018-03-28T07:52:49.175Z,998.34
2018-03-28T07:53:49.202Z,998.32
2018-03-28T07:54:49.229Z,998.30
2018-03-28T07:55:49.267Z,998.29
2018-03-28T07:56:49.282Z,998.31
2018-03-28T07:57:49.338Z,998.36
2018-03-28T07:58:49.339Z,998.32
2018-03-28T07:59:49.366Z,998.27
2018-03-28T08:00:49.392Z,998.36
2018-03-28T08:01:49.417Z,998.27
2018-03-28T08:02:49.444Z,998.30
2018-03-28T08:03:49.472Z,998.27
2018-03-28T08:04:49.499Z,998.22
2018-03-28T08:05:49.527Z,998.23
2018-03-28T08:06:49.555Z,998.26
2018-03-28T08:07:49.582Z,998.24
2018-03-28T08:08:49.607Z,998.22
2018-03-28T08:09:49.664Z,998.18
2018-03-28T08:10:49.676Z,998.21
2018-03-28T08:11:49.710Z,998.21
2018-03-28T08:12:49.717Z,998.24
2018-03-28T08:13:49.746Z,998.19
2018-03-28T08:14:49.773Z,998.16
2018-03-28T08:15:49.798Z,998.18
2018-03-28T08:16:49.832Z,998.18
2018-03-28T08:17:49.852Z,998.17
2018-03-28T08:18:49.881Z,998.17
2018-03-28T08:19:49.907Z,998.21
2018-03-28T08:20:49.933Z,998.24
2018-03-28T08:21:49.961Z,998.25
2018-03-28T08:22:49.989Z,998.25
2018-03-28T08:23:50.016Z,998.28
2018-03-28T08:24:50.043Z,998.26
2018-03-28T08:25:50.070Z,998.26
2018-03-28T08:26:50.097Z,998.25
2018-03-28T08:27:50.124Z,998.26
2018-03-28T08:28:50.170Z,998.25
2018-03-28T08:29:50.180Z,998.25
2018-03-28T08:30:50.249Z,998.25
2018-03-28T08:31:50.237Z,998.27
2018-03-28T08:32:50.288Z,998.28
2018-03-28T08:33:51.101Z,998.29
2018-03-28T08:34:50.320Z,998.28
2018-03-28T08:35:50.342Z,998.25
2018-03-28T08:36:50.376Z,998.27
2018-03-28T08:37:50.401Z,998.30
2018-03-28T08:38:50.423Z,998.30
2018-03-28T08:39:50.455Z,998.33
2018-03-28T08:40:50.484Z,998.25
2018-03-28T08:41:50.505Z,998.27
2018-03-28T08:42:50.532Z,998.24
2018-03-28T08:43:50.559Z,998.27
2018-03-28T08:44:50.587Z,998.23
2018-03-28T08:45:50.616Z,998.28
2018-03-28T08:46:50.647Z,998.25
2018-03-28T08:47:57.786Z,998.30
2018-03-28T08:49:43.606Z,998.27
2018-03-28T08:50:43.583Z,998.29
2018-03-28T08:52:35.529Z,998.27
2018-03-28T08:53:35.514Z,998.25
2018-03-28T08:55:28.454Z,998.22
2018-03-28T08:56:28.429Z,998.24
2018-03-28T08:58:21.387Z,998.25
2018-03-28T08:59:21.354Z,998.30
2018-03-28T09:01:14.266Z,998.30
2018-03-28T09:02:14.301Z,998.31
2018-03-28T09:04:08.882Z,998.31
2018-03-28T09:05:08.881Z,998.37
2018-03-28T09:07:01.901Z,998.29
2018-03-28T09:08:01.798Z,998.28
2018-03-28T09:09:56.390Z,998.33
2018-03-28T09:10:56.410Z,998.31
2018-03-28T09:13:16.536Z,998.33
2018-03-28T09:14:16.537Z,998.36
2018-03-28T09:16:36.682Z,998.33
2018-03-28T09:17:36.660Z,998.37
2018-03-28T09:19:43.135Z,998.30
2018-03-28T09:20:43.129Z,998.35
2018-03-28T09:22:37.765Z,998.41
2018-03-28T09:23:37.737Z,998.31
2018-03-28T09:25:30.674Z,998.35
2018-03-28T09:26:30.688Z,998.36
2018-03-28T09:28:23.829Z,998.33
2018-03-28T09:29:23.833Z,998.35
2018-03-28T09:31:16.784Z,998.35
2018-03-28T09:32:16.790Z,998.36
2018-03-28T09:34:10.584Z,998.41
2018-03-28T09:35:10.549Z,998.37
2018-03-28T09:37:30.661Z,998.34
2018-03-28T09:38:30.719Z,998.37
2018-03-28T09:43:39.096Z,998.38
2018-03-28T09:44:39.068Z,998.36
2018-03-28T09:47:09.370Z,998.37
2018-03-28T09:48:09.379Z,998.35
2018-03-28T09:50:02.271Z,998.34
2018-03-28T09:51:02.288Z,998.35
2018-03-28T09:52:55.203Z,998.34
2018-03-28T09:53:55.202Z,998.37
2018-03-28T09:55:48.121Z,998.35
2018-03-28T09:56:48.118Z,998.34
2018-03-28T09:59:08.249Z,998.33
2018-03-28T10:00:08.245Z,998.30
2018-03-28T10:02:00.213Z,998.33
2018-03-28T10:03:00.211Z,998.34
2018-03-28T10:04:52.137Z,998.34
2018-03-28T10:05:52.136Z,998.34
2018-03-28T10:07:44.046Z,998.31
2018-03-28T10:08:44.065Z,998.31
2018-03-28T10:10:35.960Z,998.29
2018-03-28T10:11:35.984Z,998.34
2018-03-28T10:13:28.020Z,998.28
2018-03-28T10:14:28.008Z,998.29
2018-03-28T10:16:19.949Z,998.30
2018-03-28T10:17:19.937Z,998.28
2018-03-28T10:19:11.895Z,998.29
2018-03-28T10:20:11.892Z,998.28
2018-03-28T10:22:03.882Z,998.31
2018-03-28T10:23:03.882Z,998.28
2018-03-28T10:24:55.811Z,998.29
2018-03-28T10:25:55.808Z,998.23
2018-03-28T10:27:48.737Z,998.25
2018-03-28T10:28:48.724Z,998.27
2018-03-28T10:30:40.677Z,998.24
2018-03-28T10:31:40.716Z,998.24
2018-03-28T10:33:32.723Z,998.33
2018-03-28T10:34:32.724Z,998.36
2018-03-28T10:36:25.642Z,998.29
2018-03-28T10:37:25.641Z,998.36
2018-03-28T10:39:18.556Z,998.40
2018-03-28T10:40:18.576Z,998.36
2018-03-28T10:42:10.664Z,998.34
2018-03-28T10:43:10.685Z,998.32
2018-03-28T10:45:03.602Z,998.35
2018-03-28T10:46:03.602Z,998.34
2018-03-28T10:47:55.668Z,998.37
2018-03-28T10:48:55.679Z,998.35
2018-03-28T10:50:47.814Z,998.43
2018-03-28T10:51:47.813Z,998.43
2018-03-28T10:53:39.724Z,998.37
2018-03-28T10:54:39.738Z,998.40
2018-03-28T10:56:31.881Z,998.38
2018-03-28T10:57:31.888Z,998.38
2018-03-28T10:59:24.012Z,998.42
2018-03-28T11:00:24.013Z,998.48
2018-03-28T11:02:16.028Z,998.49
2018-03-28T11:03:16.027Z,998.45
2018-03-28T11:05:08.943Z,998.48
2018-03-28T11:06:08.943Z,998.50
2018-03-28T11:08:01.861Z,998.48
2018-03-28T11:09:01.860Z,998.52
2018-03-28T11:10:54.815Z,998.49
2018-03-28T11:11:54.811Z,998.52
2018-03-28T11:13:47.678Z,998.53
2018-03-28T11:14:47.691Z,998.52
2018-03-28T11:16:39.726Z,998.51
2018-03-28T11:17:39.724Z,998.55
2018-03-28T11:19:31.882Z,998.49
2018-03-28T11:20:31.936Z,998.50
2018-03-28T11:22:23.777Z,998.52
2018-03-28T11:23:23.780Z,998.54
2018-03-28T11:25:15.705Z,998.56
2018-03-28T11:26:15.703Z,998.56
2018-03-28T11:28:07.706Z,998.53
2018-03-28T11:29:07.724Z,998.55
2018-03-28T11:30:59.751Z,998.52
2018-03-28T11:31:59.749Z,998.49
2018-03-28T11:32:59.778Z,998.51
2018-03-28T11:33:59.803Z,998.49
2018-03-28T11:34:59.831Z,998.52
2018-03-28T11:35:59.859Z,998.51
2018-03-28T11:36:59.885Z,998.53
2018-03-28T11:37:59.979Z,998.48
2018-03-28T11:38:59.942Z,998.49
2018-03-28T11:39:59.981Z,998.50
2018-03-28T11:40:59.995Z,998.53
2018-03-28T11:42:00.028Z,998.57
2018-03-28T11:43:00.051Z,998.56
2018-03-28T11:44:00.078Z,998.62
2018-03-28T11:45:00.105Z,998.58
2018-03-28T11:46:00.132Z,998.55
2018-03-28T11:47:00.161Z,998.60
2018-03-28T11:48:00.188Z,998.57
2018-03-28T11:49:00.214Z,998.54
2018-03-28T11:50:00.257Z,998.61
2018-03-28T11:51:00.270Z,998.54
2018-03-28T11:52:00.297Z,998.51
2018-03-28T11:53:00.368Z,998.53
2018-03-28T11:54:00.351Z,998.52
2018-03-28T11:55:00.379Z,998.50
2018-03-28T11:56:00.453Z,998.53
2018-03-28T11:57:00.433Z,998.48
2018-03-28T11:58:00.462Z,998.55
2018-03-28T11:59:00.489Z,998.47
2018-03-28T12:00:00.516Z,998.47
2018-03-28T12:01:00.543Z,998.50
2018-03-28T12:02:00.571Z,998.49
2018-03-28T12:03:00.598Z,998.48
2018-03-28T12:04:00.626Z,998.45
2018-03-28T12:05:00.652Z,998.45
2018-03-28T12:06:00.680Z,998.47
2018-03-28T12:07:00.707Z,998.52
2018-03-28T12:08:00.735Z,998.47
2018-03-28T12:09:00.802Z,998.50
2018-03-28T12:10:00.790Z,998.50
2018-03-28T12:11:00.817Z,998.51
2018-03-28T12:12:00.847Z,998.54
2018-03-28T12:13:00.878Z,998.54
2018-03-28T12:14:00.917Z,998.48
2018-03-28T12:15:00.927Z,998.54
2018-03-28T12:16:00.962Z,998.55
2018-03-28T12:17:00.982Z,998.54
2018-03-28T12:18:01.008Z,998.57
2018-03-28T12:19:01.038Z,998.55
2018-03-28T12:20:01.064Z,998.58
2018-03-28T12:21:01.090Z,998.55
2018-03-28T12:22:01.118Z,998.56
2018-03-28T12:23:01.147Z,998.56
2018-03-28T12:24:01.195Z,998.57
2018-03-28T12:25:01.208Z,998.59
2018-03-28T12:26:01.228Z,998.64
2018-03-28T12:27:01.256Z,998.63
2018-03-28T12:28:01.297Z,998.66
2018-03-28T12:29:01.324Z,998.66
2018-03-28T12:30:01.338Z,998.68
2018-03-28T12:31:01.400Z,998.67
2018-03-28T12:32:01.393Z,998.68
2018-03-28T12:33:01.418Z,998.67
2018-03-28T12:34:01.446Z,998.73
2018-03-28T12:35:01.476Z,998.70
2018-03-28T12:36:01.515Z,998.74
2018-03-28T12:37:01.533Z,998.77
2018-03-28T12:38:01.556Z,998.76
2018-03-28T12:39:01.584Z,998.78
2018-03-28T12:40:01.613Z,998.78
2018-03-28T12:41:01.675Z,998.80
2018-03-28T12:42:01.725Z,998.82
2018-03-28T12:43:01.694Z,998.88
2018-03-28T12:44:01.747Z,998.87
2018-03-28T12:45:01.789Z,998.95
2018-03-28T12:46:01.775Z,998.90
2018-03-28T12:47:01.804Z,998.88
2018-03-28T12:48:01.831Z,998.98
2018-03-28T12:49:01.906Z,998.87
2018-03-28T12:50:01.954Z,998.86
2018-03-28T12:51:01.912Z,998.87
2018-03-28T12:52:01.989Z,998.88
2018-03-28T12:53:01.966Z,998.85
2018-03-28T12:54:02.030Z,998.87
2018-03-28T12:55:02.024Z,998.91
2018-03-28T12:56:02.050Z,998.83
2018-03-28T12:57:02.081Z,998.84
2018-03-28T12:58:02.114Z,998.85
2018-03-28T12:59:02.134Z,998.84
2018-03-28T13:00:02.159Z,998.87
2018-03-28T13:01:02.188Z,998.86
2018-03-28T13:02:02.213Z,998.85
2018-03-28T13:03:02.243Z,998.88
2018-03-28T13:04:02.267Z,998.82
2018-03-28T13:05:02.295Z,998.81
2018-03-28T13:06:02.322Z,998.86
2018-03-28T13:07:02.350Z,998.85
2018-03-28T13:08:02.381Z,998.86
2018-03-28T13:09:02.423Z,998.86
2018-03-28T13:10:02.430Z,998.89
2018-03-28T13:11:02.506Z,998.89
2018-03-28T13:12:02.487Z,998.93
2018-03-28T13:13:02.511Z,998.94
2018-03-28T13:14:02.540Z,998.90
2018-03-28T13:15:02.567Z,998.90
2018-03-28T13:16:02.594Z,998.89
2018-03-28T13:17:02.620Z,998.91
2018-03-28T13:18:02.651Z,998.90
2018-03-28T13:19:02.680Z,998.87
2018-03-28T13:20:02.706Z,998.94
2018-03-28T13:21:02.729Z,998.91
2018-03-28T13:22:02.778Z,998.92
2018-03-28T13:23:02.786Z,998.93